createdAt,value
2023-05-06T00:00:25.592Z,89.3410
2023-05-06T00:01:26.583Z,89.0019
2023-05-06T00:02:27.590Z,88.9956
2023-05-06T00:03:28.958Z,89.1814
2023-05-06T00:04:29.219Z,89.3157
2023-05-06T00:05:29.371Z,89.5137
2023-05-06T00:06:29.910Z,89.4232
2023-05-06T00:07:30.720Z,89.4856
2023-05-06T00:08:31.481Z,89.1922
2023-05-06T00:09:31.863Z,89.1519
2023-05-06T00:10:32.518Z,89.2069
2023-05-06T00:11:33.122Z,89.1121
2023-05-06T00:12:33.866Z,89.2911
2023-05-06T00:13:34.571Z,89.3048
2023-05-06T00:14:35.376Z,89.3964
2023-05-06T00:15:36.267Z,89.3733
2023-05-06T00:16:37.231Z,89.4583
2023-05-06T00:17:38.488Z,89.5628
2023-05-06T00:18:39.270Z,89.6104
2023-05-06T00:19:40.126Z,89.5593
2023-05-06T00:20:40.743Z,89.4370
2023-05-06T00:21:41.130Z,89.0549
2023-05-06T00:22:41.734Z,88.7910
2023-05-06T00:23:42.541Z,88.7395
2023-05-06T00:24:43.543Z,88.9641
2023-05-06T00:25:43.759Z,88.9889
2023-05-06T00:26:44.115Z,89.0767
2023-05-06T00:27:45.115Z,89.0468
2023-05-06T00:28:45.410Z,88.8583
2023-05-06T00:29:45.935Z,88.5970
2023-05-06T00:30:46.742Z,88.3210
2023-05-06T00:31:47.386Z,88.3477
2023-05-06T00:32:47.798Z,87.8977
2023-05-06T00:33:48.444Z,87.7898
2023-05-06T00:34:49.000Z,87.6045
2023-05-06T00:35:49.677Z,87.9301
2023-05-06T00:36:50.270Z,87.7615
2023-05-06T00:37:51.198Z,87.6418
2023-05-06T00:38:51.613Z,87.7495
2023-05-06T00:39:52.370Z,87.6775
2023-05-06T00:40:53.073Z,87.9660
2023-05-06T00:41:53.780Z,87.7367
2023-05-06T00:42:54.636Z,87.7486
2023-05-06T00:43:55.063Z,87.7994
2023-05-06T00:44:55.596Z,87.9988
2023-05-06T00:45:55.606Z,88.1530
2023-05-06T00:46:56.247Z,88.6566
2023-05-06T00:47:56.961Z,88.6251
2023-05-06T00:48:57.496Z,88.6657
2023-05-06T00:49:58.040Z,88.7813
2023-05-06T00:50:58.575Z,88.6052
2023-05-06T00:51:59.039Z,88.7781
2023-05-06T00:52:59.786Z,88.6052
2023-05-06T00:54:00.470Z,88.4617
2023-05-06T00:55:01.079Z,87.7686
2023-05-06T00:56:01.762Z,87.8203
2023-05-06T00:57:02.458Z,88.1939
2023-05-06T00:58:03.441Z,88.3714
2023-05-06T00:59:03.956Z,88.1516
2023-05-06T01:00:04.669Z,88.1850
2023-05-06T01:01:05.726Z,88.2555
2023-05-06T01:02:06.675Z,88.0648
2023-05-06T01:03:07.748Z,88.1823
2023-05-06T01:04:08.398Z,88.4320
2023-05-06T01:05:09.263Z,88.4966
2023-05-06T01:06:09.850Z,88.3963
2023-05-06T01:07:10.405Z,88.2970
2023-05-06T01:08:11.178Z,88.4947
2023-05-06T01:09:12.046Z,88.7892
2023-05-06T01:10:12.739Z,88.9577
2023-05-06T01:11:15.625Z,89.1246
2023-05-06T01:12:13.989Z,89.2826
2023-05-06T01:13:15.184Z,89.3593
2023-05-06T01:14:16.073Z,89.5925
2023-05-06T01:15:16.251Z,89.4844
2023-05-06T01:16:17.350Z,89.1368
2023-05-06T01:17:18.461Z,89.3240
2023-05-06T01:18:18.709Z,88.7848
2023-05-06T01:19:19.406Z,88.8179
2023-05-06T01:20:20.244Z,88.8832
2023-05-06T01:21:20.965Z,89.1709
2023-05-06T01:22:21.835Z,89.1958
2023-05-06T01:23:22.586Z,89.1079
2023-05-06T01:24:23.476Z,88.9269
2023-05-06T01:25:23.790Z,88.5119
2023-05-06T01:26:24.618Z,88.4489
2023-05-06T01:27:25.569Z,88.3164
2023-05-06T01:28:26.496Z,88.2349
2023-05-06T01:29:27.354Z,88.4122
2023-05-06T01:30:28.502Z,88.4259
2023-05-06T01:31:29.407Z,88.5744
2023-05-06T01:32:30.480Z,88.7885
2023-05-06T01:33:31.568Z,89.0436
2023-05-06T01:34:32.508Z,89.2528
2023-05-06T01:35:32.636Z,89.4578
2023-05-06T01:36:33.360Z,89.3305
2023-05-06T01:37:34.511Z,88.9981
2023-05-06T01:38:35.238Z,89.1777
2023-05-06T01:39:36.063Z,89.1143
2023-05-06T01:40:36.973Z,89.0531
2023-05-06T01:41:37.616Z,89.1785
2023-05-06T01:42:38.564Z,89.2737
2023-05-06T01:43:39.236Z,89.2684
2023-05-06T01:44:40.224Z,89.3302
2023-05-06T01:45:41.110Z,89.5605
2023-05-06T01:46:42.215Z,89.8218
2023-05-06T01:47:43.469Z,90.1239
2023-05-06T01:48:44.335Z,90.1098
2023-05-06T01:49:45.271Z,89.9273
2023-05-06T01:50:46.287Z,89.9687
2023-05-06T01:51:47.385Z,90.1963
2023-05-06T01:52:48.280Z,90.5584
2023-05-06T01:53:49.059Z,90.6186
2023-05-06T01:54:50.000Z,90.4945
2023-05-06T01:55:50.937Z,90.6020
2023-05-06T01:56:51.763Z,90.5744
2023-05-06T01:57:52.687Z,90.6287
2023-05-06T01:58:53.383Z,90.5433
2023-05-06T01:59:54.248Z,90.3745
2023-05-06T02:00:55.128Z,90.2409
2023-05-06T02:01:56.062Z,90.1833
2023-05-06T02:02:56.979Z,90.0062
2023-05-06T02:03:57.567Z,90.4011
2023-05-06T02:04:58.783Z,90.5777
2023-05-06T02:05:59.482Z,90.7101
2023-05-06T02:07:00.312Z,90.7004
2023-05-06T02:08:01.240Z,90.6350
2023-05-06T02:09:02.051Z,90.5577
2023-05-06T02:10:02.971Z,90.4627
2023-05-06T02:11:03.629Z,90.4242
2023-05-06T02:12:04.455Z,90.4099
2023-05-06T02:13:05.419Z,90.5340
2023-05-06T02:14:06.288Z,90.4707
2023-05-06T02:15:07.322Z,90.5102
2023-05-06T02:16:08.423Z,90.6822
2023-05-06T02:17:09.677Z,90.7649
2023-05-06T02:18:10.807Z,90.9646
2023-05-06T02:19:11.513Z,90.8917
2023-05-06T02:20:12.407Z,90.8211
2023-05-06T02:21:13.119Z,90.8850
2023-05-06T02:22:13.953Z,91.0180
2023-05-06T02:23:14.624Z,91.1772
2023-05-06T02:24:15.624Z,90.9618
2023-05-06T02:25:16.508Z,90.8819
2023-05-06T02:26:17.322Z,90.8716
2023-05-06T02:27:18.317Z,90.9208
2023-05-06T02:28:19.258Z,91.2082
2023-05-06T02:29:20.177Z,91.0457
2023-05-06T02:30:21.007Z,90.9043
2023-05-06T02:31:21.890Z,91.0835
2023-05-06T02:32:21.990Z,91.0988
2023-05-06T02:33:22.750Z,91.0868
2023-05-06T02:34:23.437Z,91.0834
2023-05-06T02:35:24.045Z,91.0578
2023-05-06T02:36:24.836Z,91.0037
2023-05-06T02:37:25.291Z,90.9767
2023-05-06T02:38:26.017Z,91.1195
2023-05-06T02:39:26.511Z,91.0145
2023-05-06T02:40:27.222Z,90.9868
2023-05-06T02:41:28.130Z,91.0647
2023-05-06T02:42:29.077Z,90.7312
2023-05-06T02:43:30.275Z,90.7346
2023-05-06T02:44:30.384Z,91.0419
2023-05-06T02:45:31.350Z,91.0246
2023-05-06T02:46:32.100Z,90.9178
2023-05-06T02:47:33.041Z,90.9111
2023-05-06T02:48:33.955Z,90.9495
2023-05-06T02:49:34.878Z,90.9966
2023-05-06T02:50:35.809Z,90.8537
2023-05-06T02:51:36.570Z,90.9981
2023-05-06T02:52:37.494Z,90.7882
2023-05-06T02:53:38.224Z,90.9889
2023-05-06T02:54:39.105Z,90.9966
2023-05-06T02:55:40.048Z,90.8810
2023-05-06T02:56:40.764Z,90.8193
2023-05-06T02:57:41.716Z,90.8091
2023-05-06T02:58:42.437Z,90.9170
2023-05-06T02:59:43.395Z,90.9308
2023-05-06T03:00:44.387Z,91.0565
2023-05-06T03:01:45.381Z,90.9054
2023-05-06T03:02:46.322Z,91.1764
2023-05-06T03:03:47.160Z,91.1622
2023-05-06T03:04:48.257Z,91.0859
2023-05-06T03:05:49.364Z,90.9252
2023-05-06T03:06:50.110Z,91.1254
2023-05-06T03:07:51.031Z,91.0756
2023-05-06T03:08:51.802Z,91.0368
2023-05-06T03:09:52.685Z,90.9819
2023-05-06T03:10:53.473Z,90.9183
2023-05-06T03:11:54.436Z,91.1135
2023-05-06T03:12:55.363Z,91.2914
2023-05-06T03:13:56.384Z,91.3771
2023-05-06T03:14:57.459Z,91.3602
2023-05-06T03:15:58.261Z,91.3469
2023-05-06T03:16:59.368Z,91.4280
2023-05-06T03:17:59.705Z,91.5321
2023-05-06T03:19:00.675Z,91.5354
2023-05-06T03:20:01.729Z,91.4326
2023-05-06T03:21:02.527Z,91.3644
2023-05-06T03:22:03.806Z,91.4200
2023-05-06T03:23:04.674Z,91.4652
2023-05-06T03:24:05.577Z,91.5273
2023-05-06T03:25:06.512Z,91.4639
2023-05-06T03:26:06.598Z,91.3643
2023-05-06T03:27:07.640Z,91.2064
2023-05-06T03:28:08.607Z,91.2279
2023-05-06T03:29:09.428Z,91.0929
2023-05-06T03:30:10.517Z,91.0673
2023-05-06T03:31:11.382Z,91.2943
2023-05-06T03:32:11.536Z,91.2144
2023-05-06T03:33:12.871Z,91.3128
2023-05-06T03:34:13.741Z,91.3537
2023-05-06T03:35:14.475Z,91.4595
2023-05-06T03:36:15.270Z,91.6109
2023-05-06T03:37:16.303Z,91.5653
2023-05-06T03:38:17.196Z,91.7604
2023-05-06T03:39:18.294Z,91.7488
2023-05-06T03:40:19.264Z,91.8687
2023-05-06T03:41:19.993Z,92.1074
2023-05-06T03:42:20.724Z,92.1368
2023-05-06T03:43:21.470Z,92.3694
2023-05-06T03:44:22.461Z,92.6696
2023-05-06T03:45:23.383Z,92.7594
2023-05-06T03:46:24.390Z,92.6478
2023-05-06T03:47:25.657Z,92.7049
2023-05-06T03:48:26.759Z,92.8994
2023-05-06T03:49:27.899Z,92.9769
2023-05-06T03:50:28.978Z,93.1122
2023-05-06T03:51:29.987Z,93.1995
2023-05-06T03:52:31.021Z,93.1722
2023-05-06T03:53:31.906Z,93.2697
2023-05-06T03:54:32.883Z,93.1719
2023-05-06T03:55:33.189Z,92.9450
2023-05-06T03:56:34.016Z,93.0210
2023-05-06T03:57:35.296Z,93.0149
2023-05-06T03:58:36.338Z,93.1751
2023-05-06T03:59:37.239Z,93.2742
2023-05-06T04:00:38.355Z,93.2592
2023-05-06T04:01:39.299Z,93.4858
2023-05-06T04:02:39.653Z,93.5275
2023-05-06T04:03:40.015Z,93.4214
2023-05-06T04:04:39.976Z,93.1497
2023-05-06T04:05:41.009Z,93.2195
2023-05-06T04:06:41.947Z,93.1546
2023-05-06T04:07:42.875Z,93.2509
2023-05-06T04:08:43.744Z,93.3590
2023-05-06T04:09:44.738Z,93.3117
2023-05-06T04:10:45.857Z,93.4442
2023-05-06T04:11:45.845Z,93.7354
2023-05-06T04:12:46.881Z,93.7257
2023-05-06T04:13:46.911Z,93.5668
2023-05-06T04:14:47.922Z,93.5514
2023-05-06T04:15:48.723Z,93.4474
2023-05-06T04:16:49.780Z,93.4387
2023-05-06T04:17:50.636Z,93.4182
2023-05-06T04:18:51.687Z,93.5005
2023-05-06T04:19:52.578Z,93.5719
2023-05-06T04:20:53.444Z,93.5682
2023-05-06T04:21:54.565Z,93.5062
2023-05-06T04:22:55.389Z,93.5252
2023-05-06T04:23:56.344Z,93.5687
2023-05-06T04:24:57.416Z,93.5719
2023-05-06T04:25:58.244Z,93.4300
2023-05-06T04:26:59.190Z,93.4525
2023-05-06T04:28:00.155Z,93.2861
2023-05-06T04:29:01.111Z,93.3590
2023-05-06T04:30:02.404Z,93.3480
2023-05-06T04:31:03.187Z,93.2481
2023-05-06T04:32:04.404Z,93.1583
2023-05-06T04:33:05.525Z,92.8025
2023-05-06T04:34:05.885Z,92.7697
2023-05-06T04:35:07.117Z,92.5916
2023-05-06T04:36:08.070Z,92.4272
2023-05-06T04:37:09.173Z,92.3581
2023-05-06T04:38:09.948Z,92.4525
2023-05-06T04:39:11.027Z,92.4824
2023-05-06T04:40:12.090Z,92.2958
2023-05-06T04:41:12.956Z,92.2847
2023-05-06T04:42:14.147Z,92.5678
2023-05-06T04:43:15.082Z,92.7455
2023-05-06T04:44:16.169Z,92.7663
2023-05-06T04:45:17.242Z,92.6603
2023-05-06T04:46:18.395Z,92.7126
2023-05-06T04:47:19.513Z,92.7591
2023-05-06T04:48:20.700Z,92.7354
2023-05-06T04:49:21.829Z,92.6360
2023-05-06T04:50:22.947Z,92.8776
2023-05-06T04:51:24.006Z,92.6591
2023-05-06T04:52:24.108Z,92.5785
2023-05-06T04:53:25.575Z,92.6195
2023-05-06T04:54:26.569Z,92.9154
2023-05-06T04:55:26.986Z,92.8601
2023-05-06T04:56:27.952Z,92.9976
2023-05-06T04:57:29.067Z,92.9466
2023-05-06T04:58:30.161Z,93.1693
2023-05-06T04:59:31.137Z,93.2115
2023-05-06T05:00:32.318Z,93.0133
2023-05-06T05:01:33.561Z,92.9428
2023-05-06T05:02:33.934Z,93.0356
2023-05-06T05:03:34.686Z,93.1651
2023-05-06T05:04:34.622Z,93.0472
2023-05-06T05:05:34.684Z,93.0451
2023-05-06T05:06:35.584Z,92.8686
2023-05-06T05:07:36.743Z,92.5873
2023-05-06T05:08:37.719Z,92.7925
2023-05-06T05:09:38.984Z,92.9113
2023-05-06T05:11:39.704Z,92.8463
2023-05-06T05:12:41.044Z,92.8218
2023-05-06T05:13:40.998Z,92.7602
2023-05-06T05:14:42.148Z,92.6632
2023-05-06T05:15:42.315Z,92.5130
2023-05-06T05:16:43.636Z,92.6128
2023-05-06T05:18:44.427Z,92.6715
2023-05-06T05:19:44.625Z,92.8603
2023-05-06T05:20:45.665Z,92.9596
2023-05-06T05:21:46.825Z,93.0877
2023-05-06T05:22:47.778Z,93.1095
2023-05-06T05:23:49.014Z,93.0839
2023-05-06T05:24:50.124Z,92.7008
2023-05-06T05:25:50.813Z,92.7345
2023-05-06T05:26:51.984Z,92.5882
2023-05-06T05:27:52.926Z,92.4104
2023-05-06T05:28:54.000Z,92.0133
2023-05-06T05:29:55.167Z,91.8367
2023-05-06T05:30:56.379Z,91.7138
2023-05-06T05:31:57.518Z,92.1178
2023-05-06T05:32:59.008Z,92.5684
2023-05-06T05:33:59.021Z,92.4307
2023-05-06T05:35:00.303Z,92.5479
2023-05-06T05:36:01.300Z,92.1396
2023-05-06T05:37:02.492Z,91.3464
2023-05-06T05:38:03.532Z,91.5167
2023-05-06T05:39:04.852Z,91.4538
2023-05-06T05:40:06.021Z,91.5258
2023-05-06T05:41:07.067Z,91.3572
2023-05-06T05:42:08.376Z,91.5510
2023-05-06T05:43:09.597Z,91.3471
2023-05-06T05:44:10.764Z,91.1138
2023-05-06T05:45:11.214Z,90.9989
2023-05-06T05:46:12.280Z,91.2355
2023-05-06T05:47:12.383Z,91.2673
2023-05-06T05:48:13.671Z,91.2937
2023-05-06T05:49:14.870Z,91.1527
2023-05-06T05:50:16.155Z,91.1939
2023-05-06T05:52:16.938Z,90.8667
2023-05-06T05:53:18.166Z,90.8255
2023-05-06T05:54:18.145Z,90.5984
2023-05-06T05:55:19.454Z,90.7042
2023-05-06T05:56:20.038Z,90.7209
2023-05-06T05:57:21.097Z,90.2965
2023-05-06T05:58:22.605Z,90.3388
2023-05-06T06:00:23.566Z,90.4521
2023-05-06T06:01:23.504Z,91.2249
2023-05-06T06:02:24.556Z,91.1014
2023-05-06T06:03:25.652Z,91.0832
2023-05-06T06:04:26.710Z,91.0539
2023-05-06T06:05:27.351Z,91.2829
2023-05-06T06:06:28.661Z,91.5318
2023-05-06T06:07:29.690Z,91.5872
2023-05-06T06:08:30.885Z,91.3986
2023-05-06T06:09:32.103Z,91.1978
2023-05-06T06:10:33.154Z,91.1915
2023-05-06T06:11:34.369Z,90.8179
2023-05-06T06:12:35.411Z,90.0590
2023-05-06T06:13:35.879Z,90.0585
2023-05-06T06:14:36.993Z,89.8826
2023-05-06T06:15:38.277Z,89.8720
2023-05-06T06:16:38.762Z,89.8910
2023-05-06T06:17:38.660Z,89.6849
2023-05-06T06:18:38.850Z,89.6886
2023-05-06T06:19:39.985Z,89.3846
2023-05-06T06:20:41.252Z,89.6530
2023-05-06T06:21:42.356Z,89.3702
2023-05-06T06:22:43.426Z,89.7885
2023-05-06T06:23:44.467Z,90.0088
2023-05-06T06:24:45.595Z,90.0077
2023-05-06T06:25:45.925Z,90.2458
2023-05-06T06:26:46.941Z,89.8022
2023-05-06T06:27:48.202Z,89.8054
2023-05-06T06:28:49.523Z,89.6403
2023-05-06T06:29:50.520Z,89.6195
2023-05-06T06:30:51.845Z,89.6818
2023-05-06T06:31:51.897Z,89.9360
2023-05-06T06:32:51.932Z,90.0210
2023-05-06T06:33:53.136Z,89.7566
2023-05-06T06:34:54.442Z,89.7852
2023-05-06T06:35:54.632Z,89.9927
2023-05-06T06:36:55.853Z,90.2221
2023-05-06T06:37:57.116Z,90.0044
2023-05-06T06:38:58.360Z,90.1310
2023-05-06T06:39:58.172Z,89.9509
2023-05-06T06:40:59.418Z,89.9629
2023-05-06T06:42:00.616Z,89.7735
2023-05-06T06:43:01.644Z,89.7881
2023-05-06T06:44:02.793Z,89.3540
2023-05-06T06:45:04.075Z,89.2222
2023-05-06T06:46:05.239Z,89.4069
2023-05-06T06:47:06.551Z,88.9564
2023-05-06T06:48:06.677Z,88.9283
2023-05-06T06:49:06.708Z,89.5484
2023-05-06T06:50:07.737Z,89.8058
2023-05-06T06:52:08.582Z,89.2580
2023-05-06T06:53:09.908Z,88.5853
2023-05-06T06:54:11.102Z,88.3855
2023-05-06T06:55:11.696Z,88.6790
2023-05-06T06:56:11.624Z,88.8122
2023-05-06T06:57:11.611Z,87.9761
2023-05-06T06:58:12.666Z,87.7699
2023-05-06T06:59:14.040Z,88.2843
2023-05-06T07:00:15.052Z,88.1389
2023-05-06T07:03:17.628Z,87.4232
2023-05-06T07:04:18.933Z,87.1192
2023-05-06T07:05:19.941Z,87.3168
2023-05-06T07:06:20.790Z,87.7543
2023-05-06T07:07:21.131Z,88.3101
2023-05-06T07:08:21.659Z,87.8516
2023-05-06T07:09:22.401Z,87.5886
2023-05-06T07:10:22.668Z,87.6031
2023-05-06T07:11:23.041Z,87.3204
2023-05-06T07:12:23.649Z,87.3094
2023-05-06T07:13:24.469Z,87.5115
2023-05-06T07:14:25.224Z,87.5660
2023-05-06T07:16:25.796Z,87.7177
2023-05-06T07:17:26.150Z,87.0217
2023-05-06T07:18:26.106Z,86.9440
2023-05-06T07:19:26.279Z,86.9309
2023-05-06T07:20:27.329Z,86.9702
2023-05-06T07:21:28.459Z,86.6250
2023-05-06T07:22:28.616Z,86.0637
2023-05-06T07:23:31.897Z,85.4793
2023-05-06T07:24:30.885Z,85.5720
2023-05-06T07:25:32.059Z,84.9749
2023-05-06T07:26:33.414Z,84.9512
2023-05-06T07:27:34.711Z,85.2616
2023-05-06T07:28:35.941Z,84.9677
2023-05-06T07:29:36.105Z,84.4707
2023-05-06T07:30:37.438Z,84.7376
2023-05-06T07:31:37.768Z,84.8869
2023-05-06T07:32:38.927Z,84.9178
2023-05-06T07:33:40.252Z,84.8997
2023-05-06T07:34:41.359Z,84.9076
2023-05-06T07:35:41.525Z,84.8135
2023-05-06T07:36:42.764Z,84.5552
2023-05-06T07:37:43.763Z,84.2395
2023-05-06T07:38:44.800Z,83.9798
2023-05-06T07:39:45.660Z,83.9827
2023-05-06T07:40:46.822Z,84.4811
2023-05-06T07:41:47.349Z,84.5290
2023-05-06T07:42:48.253Z,84.4867
2023-05-06T07:43:48.416Z,84.1437
2023-05-06T07:44:49.208Z,84.1396
2023-05-06T07:45:50.200Z,83.9969
2023-05-06T07:46:51.244Z,83.9498
2023-05-06T07:47:51.077Z,83.7269
2023-05-06T07:48:51.864Z,83.3831
2023-05-06T07:49:52.597Z,83.1710
2023-05-06T07:50:53.018Z,82.9528
2023-05-06T07:51:54.902Z,83.3303
2023-05-06T07:52:54.995Z,83.2843
2023-05-06T07:53:55.624Z,83.2877
2023-05-06T07:54:56.606Z,82.5940
2023-05-06T07:55:56.779Z,82.3001
2023-05-06T07:56:57.226Z,82.3113
2023-05-06T07:57:58.506Z,82.5292
2023-05-06T07:58:59.778Z,83.7801
2023-05-06T07:59:59.982Z,82.8983
2023-05-06T08:01:01.282Z,82.9907
2023-05-06T08:02:02.580Z,82.6387
2023-05-06T08:03:04.060Z,82.3490
2023-05-06T08:04:04.152Z,82.0852
2023-05-06T08:05:04.913Z,81.9600
2023-05-06T08:07:12.970Z,81.4693
2023-05-06T08:08:14.214Z,81.1058
2023-05-06T08:09:22.241Z,81.0756
2023-05-06T08:10:15.798Z,80.9340
2023-05-06T08:11:18.823Z,81.4981
2023-05-06T08:12:17.599Z,80.9514
2023-05-06T08:13:18.900Z,80.7924
2023-05-06T08:14:20.137Z,80.1234
2023-05-06T08:15:20.129Z,78.8350
2023-05-06T08:16:22.576Z,78.1974
2023-05-06T08:17:21.800Z,78.6342
2023-05-06T08:18:23.496Z,79.2822
2023-05-06T08:19:23.469Z,78.9877
2023-05-06T08:20:23.279Z,78.7703
2023-05-06T08:21:24.153Z,77.4463
2023-05-06T08:22:25.360Z,76.9061
2023-05-06T08:23:26.412Z,75.9271
2023-05-06T08:24:27.292Z,75.7508
2023-05-06T08:25:27.416Z,75.6905
2023-05-06T08:26:28.509Z,75.2433
2023-05-06T08:27:29.298Z,76.0261
2023-05-06T08:28:30.194Z,74.1215
2023-05-06T08:29:31.008Z,73.8948
2023-05-06T08:30:32.138Z,73.7017
2023-05-06T08:31:33.191Z,73.9202
2023-05-06T08:32:33.300Z,73.6805
2023-05-06T08:33:33.512Z,74.0469
2023-05-06T08:34:33.759Z,74.0401
2023-05-06T08:35:34.010Z,74.1919
2023-05-06T08:36:34.831Z,74.3829
2023-05-06T08:37:35.906Z,74.9053
2023-05-06T08:38:36.809Z,75.7987
2023-05-06T08:39:37.822Z,75.4130
2023-05-06T08:40:38.685Z,75.2834
2023-05-06T08:41:39.972Z,75.0279
2023-05-06T08:42:41.122Z,74.8369
2023-05-06T08:43:42.183Z,74.7448
2023-05-06T08:44:43.213Z,74.8814
2023-05-06T08:45:44.163Z,74.4634
2023-05-06T08:46:44.451Z,74.7264
2023-05-06T08:47:45.482Z,75.5739
2023-05-06T08:48:46.320Z,74.9001
2023-05-06T08:49:47.441Z,74.2633
2023-05-06T08:50:48.468Z,74.5056
2023-05-06T08:51:49.712Z,75.2023
2023-05-06T08:52:51.036Z,74.4174
2023-05-06T08:53:52.188Z,73.2391
2023-05-06T08:54:52.295Z,72.7667
2023-05-06T08:55:52.485Z,72.1801
2023-05-06T08:56:53.772Z,71.8904
2023-05-06T08:57:54.276Z,70.9651
2023-05-06T08:58:55.369Z,69.5432
2023-05-06T08:59:56.647Z,68.9186
2023-05-06T09:00:57.487Z,68.4773
2023-05-06T09:01:57.719Z,68.2061
2023-05-06T09:02:58.853Z,69.9937
2023-05-06T09:03:59.617Z,70.7109
2023-05-06T09:05:00.847Z,71.4758
2023-05-06T09:06:00.854Z,71.3577
2023-05-06T09:07:01.990Z,70.5302
2023-05-06T09:08:03.266Z,69.6084
2023-05-06T09:09:04.508Z,70.0836
2023-05-06T09:10:05.347Z,70.0799
2023-05-06T09:11:06.380Z,70.5374
2023-05-06T09:12:07.610Z,69.7211
2023-05-06T09:13:08.684Z,69.9914
2023-05-06T09:14:09.840Z,70.0088
2023-05-06T09:15:10.741Z,68.5805
2023-05-06T09:16:11.688Z,68.8634
2023-05-06T09:17:12.849Z,68.9472
2023-05-06T09:18:13.066Z,68.5833
2023-05-06T09:19:14.017Z,68.9744
2023-05-06T09:20:14.817Z,67.5600
2023-05-06T09:21:15.456Z,67.5779
2023-05-06T09:22:15.609Z,68.7409
2023-05-06T09:23:16.603Z,69.3089
2023-05-06T09:24:17.647Z,68.8797
2023-05-06T09:25:18.603Z,70.6658
2023-05-06T09:26:19.575Z,71.3731
2023-05-06T09:27:20.108Z,72.1514
2023-05-06T09:28:21.395Z,74.0950
2023-05-06T09:29:22.406Z,74.2179
2023-05-06T09:30:23.625Z,72.7982
2023-05-06T09:31:24.368Z,71.8557
2023-05-06T09:32:25.377Z,72.8911
2023-05-06T09:33:25.905Z,72.8643
2023-05-06T09:34:26.986Z,73.0305
2023-05-06T09:35:27.037Z,73.2075
2023-05-06T09:36:28.381Z,72.9333
2023-05-06T09:37:29.399Z,73.8376
2023-05-06T09:38:30.358Z,72.8249
2023-05-06T09:39:31.351Z,73.0161
2023-05-06T09:40:32.268Z,73.0284
2023-05-06T09:41:33.265Z,73.9401
2023-05-06T09:42:34.190Z,73.7775
2023-05-06T09:43:35.206Z,72.9442
2023-05-06T09:44:36.538Z,73.1346
2023-05-06T09:45:37.336Z,71.9712
2023-05-06T09:46:38.751Z,71.5713
2023-05-06T09:47:39.079Z,71.4082
2023-05-06T09:48:39.096Z,71.9130
2023-05-06T09:49:40.064Z,72.0091
2023-05-06T09:50:40.975Z,71.9718
2023-05-06T09:51:41.938Z,71.3397
2023-05-06T09:52:43.052Z,70.6744
2023-05-06T09:53:44.107Z,71.9266
2023-05-06T09:54:45.021Z,70.7270
2023-05-06T09:55:45.131Z,70.6171
2023-05-06T09:56:46.188Z,70.1478
2023-05-06T09:57:46.468Z,69.7063
2023-05-06T09:58:47.529Z,65.9482
2023-05-06T09:59:48.656Z,64.4430
2023-05-06T10:00:48.836Z,65.8809
2023-05-06T10:01:49.247Z,65.6185
2023-05-06T10:02:49.448Z,64.6872
2023-05-06T10:03:49.617Z,62.9566
2023-05-06T10:04:50.229Z,64.2459
2023-05-06T10:05:50.870Z,65.1413
2023-05-06T10:06:51.821Z,67.0603
2023-05-06T10:07:52.869Z,67.6782
2023-05-06T10:08:53.884Z,66.3902
2023-05-06T10:09:54.981Z,65.9975
2023-05-06T10:10:56.014Z,66.7056
2023-05-06T10:11:57.044Z,67.9166
2023-05-06T10:12:57.181Z,68.3748
2023-05-06T10:13:58.294Z,68.8676
2023-05-06T10:14:58.440Z,68.5547
2023-05-06T10:15:59.605Z,68.1092
2023-05-06T10:16:59.939Z,66.7697
2023-05-06T10:18:00.253Z,66.6211
2023-05-06T10:19:01.221Z,67.9646
2023-05-06T10:20:01.881Z,65.9170
2023-05-06T10:21:02.818Z,65.2111
2023-05-06T10:22:05.587Z,66.0830
2023-05-06T10:23:04.580Z,66.2887
2023-05-06T10:24:05.403Z,66.0727
2023-05-06T10:25:06.567Z,66.3774
2023-05-06T10:26:07.719Z,66.0241
2023-05-06T10:27:08.766Z,66.1956
2023-05-06T10:28:23.170Z,66.6825
2023-05-06T10:29:13.412Z,65.4865
2023-05-06T10:30:14.560Z,65.7066
2023-05-06T10:31:15.691Z,65.8430
2023-05-06T10:32:15.608Z,64.5182
2023-05-06T10:33:16.948Z,64.0657
2023-05-06T10:34:18.025Z,64.4794
2023-05-06T10:36:18.865Z,62.0949
2023-05-06T10:37:19.935Z,62.7718
2023-05-06T10:38:20.875Z,63.4982
2023-05-06T10:39:21.931Z,63.7072
2023-05-06T10:40:23.098Z,62.9942
2023-05-06T10:41:24.065Z,62.6676
2023-05-06T10:42:25.453Z,61.2871
2023-05-06T10:43:26.495Z,60.5363
2023-05-06T10:44:27.619Z,59.1985
2023-05-06T10:45:28.769Z,59.9012
2023-05-06T10:46:29.801Z,59.9870
2023-05-06T10:47:30.900Z,60.0008
2023-05-06T10:48:32.009Z,59.8038
2023-05-06T10:49:33.340Z,58.9983
2023-05-06T10:50:34.482Z,59.4257
2023-05-06T10:51:35.397Z,59.2304
2023-05-06T10:52:36.652Z,59.7163
2023-05-06T10:53:37.546Z,59.5447
2023-05-06T10:56:39.279Z,55.9528
2023-05-06T10:57:40.292Z,57.9871
2023-05-06T10:58:41.474Z,58.6931
2023-05-06T10:59:42.599Z,55.0519
2023-05-06T11:00:43.432Z,54.9135
2023-05-06T11:01:43.711Z,56.3828
2023-05-06T11:02:49.398Z,56.3409
2023-05-06T11:03:49.983Z,56.3914
2023-05-06T11:04:51.004Z,58.2020
2023-05-06T11:05:52.139Z,56.3733
2023-05-06T11:06:53.195Z,56.8883
2023-05-06T11:07:54.322Z,54.0940
2023-05-06T11:08:55.369Z,52.8743
2023-05-06T11:09:56.389Z,54.1784
2023-05-06T11:10:57.404Z,54.3325
2023-05-06T11:11:58.333Z,54.4379
2023-05-06T11:12:58.557Z,53.1730
2023-05-06T11:13:59.728Z,53.1876
2023-05-06T11:15:00.906Z,54.1008
2023-05-06T11:16:02.105Z,54.9157
2023-05-06T11:17:03.630Z,54.6414
2023-05-06T11:18:04.755Z,54.7587
2023-05-06T11:19:04.856Z,54.3966
2023-05-06T11:21:05.230Z,55.0962
2023-05-06T11:22:06.246Z,57.2501
2023-05-06T11:23:06.383Z,57.6323
2023-05-06T11:24:07.293Z,57.4268
2023-05-06T11:25:08.298Z,54.7881
2023-05-06T11:26:09.329Z,54.0298
2023-05-06T11:27:10.671Z,56.0052
2023-05-06T11:28:10.900Z,55.6209
2023-05-06T11:29:11.508Z,55.8466
2023-05-06T11:30:12.785Z,56.5536
2023-05-06T11:31:12.661Z,56.2706
2023-05-06T11:32:12.865Z,56.9036
2023-05-06T11:33:14.031Z,56.7772
2023-05-06T11:34:15.291Z,57.0486
2023-05-06T11:35:16.215Z,59.1095
2023-05-06T11:36:17.390Z,58.5547
2023-05-06T11:37:18.519Z,59.5217
2023-05-06T11:38:18.584Z,56.3003
2023-05-06T11:39:19.633Z,57.9023
2023-05-06T11:40:19.875Z,57.4840
2023-05-06T11:41:20.852Z,56.8136
2023-05-06T11:42:21.769Z,57.2130
2023-05-06T11:43:22.830Z,56.3603
2023-05-06T11:44:23.891Z,56.1664
2023-05-06T11:46:24.595Z,55.2876
2023-05-06T11:47:24.736Z,53.7531
2023-05-06T11:48:24.750Z,55.5570
2023-05-06T11:49:26.063Z,55.1279
2023-05-06T11:50:26.245Z,54.3006
2023-05-06T11:51:27.415Z,54.6453
2023-05-06T11:52:27.503Z,55.0261
2023-05-06T11:53:27.840Z,55.0070
2023-05-06T11:55:28.991Z,57.0809
2023-05-06T11:56:29.475Z,56.8973
2023-05-06T11:57:30.635Z,57.7678
2023-05-06T11:58:30.773Z,56.2743
2023-05-06T11:59:31.432Z,55.0686
2023-05-06T12:00:31.715Z,55.2289
2023-05-06T12:01:31.992Z,55.6485
2023-05-06T12:02:32.763Z,54.8244
2023-05-06T12:03:34.738Z,54.3577
2023-05-06T12:04:34.952Z,54.5937
2023-05-06T12:05:36.414Z,55.0414
2023-05-06T12:07:36.017Z,53.5374
2023-05-06T12:08:36.036Z,52.6628
2023-05-06T12:09:36.117Z,54.1718
2023-05-06T12:10:37.137Z,54.7570
2023-05-06T12:11:37.218Z,52.3956
2023-05-06T12:12:37.963Z,53.4058
2023-05-06T12:13:38.953Z,53.3010
2023-05-06T12:14:39.245Z,50.2168
2023-05-06T12:15:39.832Z,49.0754
2023-05-06T12:16:40.114Z,49.2391
2023-05-06T12:18:44.137Z,49.7351
2023-05-06T12:19:45.399Z,47.9081
2023-05-06T12:20:45.851Z,48.1088
2023-05-06T12:21:45.909Z,48.2581
2023-05-06T12:22:46.321Z,46.1765
2023-05-06T12:23:48.535Z,45.6836
2023-05-06T12:25:36.641Z,46.1895
2023-05-06T12:26:37.770Z,45.6833
2023-05-06T12:27:38.135Z,46.5072
2023-05-06T12:28:38.420Z,46.5802
2023-05-06T12:29:39.392Z,45.4364
2023-05-06T12:30:40.721Z,46.1072
2023-05-06T12:31:41.998Z,44.6241
2023-05-06T12:32:42.096Z,45.3966
2023-05-06T12:33:43.429Z,45.6571